Time;durP1;ratioP1;P1;durP2;ratioP2;P2;SDS_P1;SDS_P2;PMS_P1;PMS_P2;Temp;Humidity;BMP_temperature;BMP_pressure;BME280_temperature;BME280_humidity;BME280_pressure;Samples;Min_cycle;Max_cycle;Signal;HPM_P1;HPM_P2
2022/05/31 00:01:27;;;;;;;0.95;0.95;;;15.00;99.90;;;;;;5064356;28;20202;-75
2022/05/31 00:03:54;;;;;;;0.73;0.73;;;15.00;99.90;;;;;;5065517;28;20213;-75
2022/05/31 00:06:21;;;;;;;0.90;0.90;;;15.00;99.90;;;;;;5069413;28;20198;-75
2022/05/31 00:08:48;;;;;;;0.93;0.93;;;15.00;99.90;;;;;;5066086;28;20231;-75
2022/05/31 00:11:15;;;;;;;1.00;0.93;;;15.00;99.90;;;;;;5066707;28;20248;-76
2022/05/31 00:13:44;;;;;;;0.90;0.90;;;15.00;99.90;;;;;;5065372;28;20697;-75
2022/05/31 00:16:12;;;;;;;1.10;1.10;;;15.00;99.90;;;;;;5066160;28;20190;-75
2022/05/31 00:18:39;;;;;;;2.67;0.90;;;15.00;99.90;;;;;;5056563;28;20273;-76
2022/05/31 00:21:07;;;;;;;0.95;0.95;;;15.00;99.90;;;;;;5093042;22;20300;-76
2022/05/31 00:23:35;;;;;;;0.90;0.90;;;14.90;99.90;;;;;;5049940;28;20681;-76
2022/05/31 00:26:02;;;;;;;0.70;0.70;;;14.90;99.90;;;;;;5063828;28;20198;-76
2022/05/31 00:28:29;;;;;;;0.90;0.90;;;14.90;99.90;;;;;;5063922;28;20271;-76
2022/05/31 00:30:58;;;;;;;0.73;0.73;;;14.80;99.90;;;;;;5071390;28;20704;-76
2022/05/31 00:33:26;;;;;;;0.90;0.90;;;14.80;99.90;;;;;;5070021;28;20656;-77
2022/05/31 00:35:53;;;;;;;1.38;1.27;;;14.80;99.90;;;;;;5081255;28;20198;-77
2022/05/31 00:38:21;;;;;;;1.20;1.20;;;14.80;99.90;;;;;;5078002;28;20700;-76
2022/05/31 00:40:48;;;;;;;0.80;0.80;;;14.80;99.90;;;;;;5066263;28;20220;-76
2022/05/31 00:43:20;;;;;;;0.90;0.90;;;14.80;99.90;;;;;;5070819;28;20218;-77
2022/05/31 00:45:50;;;;;;;1.00;1.00;;;14.80;99.90;;;;;;5066446;28;20198;-76
2022/05/31 00:48:23;;;;;;;0.82;0.82;;;14.80;99.90;;;;;;5068884;28;20230;-76
2022/05/31 00:50:54;;;;;;;0.80;0.80;;;14.80;99.90;;;;;;5065014;28;20249;-76
2022/05/31 00:53:27;;;;;;;0.80;0.80;;;14.70;99.90;;;;;;5066792;28;20708;-76
2022/05/31 00:55:57;;;;;;;1.00;1.00;;;14.70;99.90;;;;;;5066088;28;20584;-76
2022/05/31 00:58:30;;;;;;;0.80;0.80;;;14.70;99.90;;;;;;5067006;28;20209;-76
2022/05/31 01:00:58;;;;;;;0.77;0.77;;;14.70;99.90;;;;;;5064903;28;20219;-76
2022/05/31 01:03:28;;;;;;;1.10;1.00;;;14.70;99.90;;;;;;5071455;28;20221;-76
2022/05/31 01:05:55;;;;;;;0.90;0.90;;;14.70;99.90;;;;;;5070232;28;20199;-76
2022/05/31 01:08:23;;;;;;;1.30;1.00;;;14.70;99.90;;;;;;5069875;28;20308;-76
2022/05/31 01:10:50;;;;;;;0.90;0.90;;;14.70;99.90;;;;;;5069279;28;20309;-76
2022/05/31 01:13:18;;;;;;;0.80;0.80;;;14.70;99.90;;;;;;5070929;28;20279;-76
2022/05/31 01:15:47;;;;;;;1.15;1.08;;;14.70;99.90;;;;;;5068362;28;20190;-76
2022/05/31 01:18:15;;;;;;;0.80;0.80;;;14.70;99.90;;;;;;5069887;28;20230;-76
2022/05/31 01:20:44;;;;;;;0.90;0.90;;;14.70;99.90;;;;;;5082996;28;20229;-76
2022/05/31 01:23:14;;;;;;;0.90;0.90;;;14.60;99.90;;;;;;5067560;28;20217;-76
2022/05/31 01:26:04;;;;;;;0.93;0.93;;;14.60;99.90;;;;;;5065725;28;20198;-76
2022/05/31 01:28:44;;;;;;;1.00;0.95;;;14.50;99.90;;;;;;5069331;28;20619;-76
2022/05/31 01:31:18;;;;;;;0.90;0.90;;;14.50;99.90;;;;;;5069221;28;20228;-76
2022/05/31 01:33:51;;;;;;;1.45;1.02;;;14.60;99.90;;;;;;5069010;28;20300;-76
2022/05/31 01:36:23;;;;;;;0.80;0.80;;;14.50;99.90;;;;;;5066354;28;20202;-76
2022/05/31 01:38:56;;;;;;;0.80;0.80;;;14.50;99.90;;;;;;5067114;28;20289;-76
2022/05/31 01:41:29;;;;;;;0.82;0.82;;;14.50;99.90;;;;;;5065520;28;20219;-76
2022/05/31 01:43:59;;;;;;;1.00;1.00;;;14.40;99.90;;;;;;5066869;28;20218;-75
2022/05/31 01:46:29;;;;;;;0.95;0.95;;;14.40;99.90;;;;;;5067861;28;20226;-76
2022/05/31 01:48:58;;;;;;;0.93;0.93;;;14.40;99.90;;;;;;5065035;28;20312;-76
2022/05/31 01:51:27;;;;;;;0.90;0.80;;;14.40;99.90;;;;;;5067379;28;20226;-76
2022/05/31 01:53:56;;;;;;;0.70;0.70;;;14.40;99.90;;;;;;5066492;28;20297;-75
2022/05/31 01:56:23;;;;;;;0.80;0.75;;;14.50;99.90;;;;;;5066653;28;20210;-76
2022/05/31 01:58:59;;;;;;;1.00;1.00;;;14.50;99.90;;;;;;5059499;28;20222;-76
2022/05/31 02:01:28;;;;;;;0.90;0.90;;;14.50;99.90;;;;;;5061406;28;20222;-76
2022/05/31 02:03:55;;;;;;;1.00;1.00;;;14.50;99.90;;;;;;5073631;28;20435;-76
2022/05/31 02:06:30;;;;;;;0.80;0.80;;;14.50;99.90;;;;;;5075955;28;20202;-76
2022/05/31 02:08:58;;;;;;;1.08;1.08;;;14.50;99.90;;;;;;5061135;28;20230;-76
2022/05/31 02:11:26;;;;;;;0.95;0.95;;;14.50;99.90;;;;;;5065926;28;20800;-76
2022/05/31 02:13:53;;;;;;;1.00;1.00;;;14.50;99.90;;;;;;5066974;28;20210;-76
2022/05/31 02:16:21;;;;;;;1.00;1.00;;;14.40;99.90;;;;;;5065684;28;20207;-76
2022/05/31 02:21:36;;;;;;;0.90;0.90;;;14.40;99.90;;;;;;5064106;28;20228;-76
2022/05/31 02:24:08;;;;;;;1.00;0.90;;;14.40;99.90;;;;;;5066128;28;20313;-76
2022/05/31 02:26:35;;;;;;;0.90;0.90;;;14.30;99.90;;;;;;5064603;28;20314;-76
2022/05/31 02:29:03;;;;;;;0.80;0.80;;;14.30;99.90;;;;;;5066766;28;20217;-76
2022/05/31 02:31:31;;;;;;;1.10;1.10;;;14.30;99.90;;;;;;5066696;28;20218;-76
2022/05/31 02:33:58;;;;;;;1.00;1.00;;;14.30;99.90;;;;;;5063341;28;20218;-76
2022/05/31 02:36:26;;;;;;;1.05;1.05;;;14.30;99.90;;;;;;5064375;28;20293;-76
2022/05/31 02:38:54;;;;;;;1.08;1.08;;;14.30;99.90;;;;;;5066985;28;20308;-76
2022/05/31 02:41:21;;;;;;;0.90;0.90;;;14.30;99.90;;;;;;5065861;28;20222;-75
2022/05/31 02:43:48;;;;;;;0.80;0.80;;;14.30;99.90;;;;;;5064120;28;20707;-76
2022/05/31 02:46:16;;;;;;;1.05;1.00;;;14.30;99.90;;;;;;5060742;28;20205;-76
2022/05/31 02:48:43;;;;;;;1.02;1.02;;;14.40;99.90;;;;;;5081290;28;20245;-76
2022/05/31 02:51:10;;;;;;;1.08;1.08;;;14.40;99.90;;;;;;5067435;28;20206;-76
2022/05/31 02:53:38;;;;;;;0.70;0.70;;;14.40;99.90;;;;;;5061994;28;20629;-76
2022/05/31 02:56:07;;;;;;;1.00;1.00;;;14.40;99.90;;;;;;5062663;28;20195;-76
2022/05/31 02:58:34;;;;;;;0.80;0.80;;;14.40;99.90;;;;;;5065215;28;20635;-76
2022/05/31 03:01:02;;;;;;;0.93;0.93;;;14.40;99.90;;;;;;5064254;28;20650;-76
2022/05/31 03:03:29;;;;;;;1.08;1.08;;;14.40;99.90;;;;;;5065136;28;20226;-76
2022/05/31 03:05:56;;;;;;;1.00;1.00;;;14.40;99.90;;;;;;5062015;28;20198;-76
2022/05/31 03:08:23;;;;;;;0.90;0.90;;;14.40;99.90;;;;;;5063037;28;20708;-76
2022/05/31 03:10:54;;;;;;;1.00;1.00;;;14.40;99.90;;;;;;5065574;28;20308;-76
2022/05/31 03:13:26;;;;;;;1.17;1.10;;;14.40;99.90;;;;;;5060543;28;20692;-76
2022/05/31 03:15:56;;;;;;;1.10;1.10;;;14.30;99.90;;;;;;5065623;28;20205;-76
2022/05/31 03:18:27;;;;;;;1.10;1.10;;;14.30;99.90;;;;;;5062696;28;20214;-76
2022/05/31 03:20:56;;;;;;;0.98;0.98;;;14.20;99.90;;;;;;5064066;28;20223;-76
2022/05/31 03:23:28;;;;;;;1.23;1.23;;;14.20;99.90;;;;;;5061111;28;20232;-76
2022/05/31 03:25:56;;;;;;;0.90;0.90;;;14.20;99.90;;;;;;5064102;28;20198;-76
2022/05/31 03:28:26;;;;;;;0.90;0.90;;;14.20;99.90;;;;;;5061845;28;20332;-76
2022/05/31 03:30:53;;;;;;;1.00;1.00;;;14.20;99.90;;;;;;5058629;28;20581;-75
2022/05/31 03:33:21;;;;;;;0.80;0.80;;;14.30;99.90;;;;;;5074380;28;20198;-76
2022/05/31 03:35:48;;;;;;;0.98;0.98;;;14.30;99.90;;;;;;5059339;28;20198;-76
2022/05/31 03:38:15;;;;;;;1.05;1.05;;;14.30;99.90;;;;;;5062098;28;20277;-76
2022/05/31 03:43:25;;;;;;;0.88;0.88;;;14.30;99.90;;;;;;5056257;28;20190;-76
2022/05/31 03:45:53;;;;;;;0.90;0.90;;;14.30;99.90;;;;;;5061227;28;20194;-77
2022/05/31 03:48:20;;;;;;;1.08;1.08;;;14.30;99.90;;;;;;5056264;28;20301;-76
2022/05/31 03:50:57;;;;;;;1.05;1.05;;;14.30;99.90;;;;;;5062081;28;20214;-76
2022/05/31 03:53:24;;;;;;;1.15;1.10;;;14.30;99.90;;;;;;5061442;28;20190;-76
2022/05/31 03:55:51;;;;;;;1.08;1.08;;;14.30;99.90;;;;;;5061062;28;20209;-76
2022/05/31 03:58:18;;;;;;;1.00;1.00;;;14.30;99.90;;;;;;5060017;28;20203;-76
2022/05/31 04:00:47;;;;;;;0.85;0.85;;;14.30;99.90;;;;;;5057363;28;20222;-77
2022/05/31 04:03:14;;;;;;;1.00;1.00;;;14.30;99.90;;;;;;5061441;28;20205;-77
2022/05/31 04:05:42;;;;;;;0.93;0.93;;;14.20;99.90;;;;;;5059328;28;20201;-76
2022/05/31 04:08:12;;;;;;;1.00;1.00;;;14.20;99.90;;;;;;5057319;28;20248;-76
2022/05/31 04:10:41;;;;;;;0.90;0.90;;;14.10;99.90;;;;;;5039945;28;20720;-76
2022/05/31 04:13:08;;;;;;;1.48;1.38;;;14.10;99.90;;;;;;5045209;28;20203;-77
2022/05/31 04:15:35;;;;;;;0.90;0.90;;;14.20;99.90;;;;;;5051931;28;20210;-77
2022/05/31 04:18:05;;;;;;;1.10;1.10;;;14.20;99.90;;;;;;5060820;28;20248;-76
2022/05/31 04:20:33;;;;;;;1.25;1.25;;;14.20;99.90;;;;;;5064966;28;20654;-76
2022/05/31 04:25:41;;;;;;;1.10;1.10;;;14.20;99.90;;;;;;5057986;28;20269;-76
2022/05/31 04:28:08;;;;;;;1.10;1.10;;;14.30;99.90;;;;;;5062835;28;20202;-75
2022/05/31 04:30:35;;;;;;;1.48;1.33;;;14.30;99.90;;;;;;5044843;28;20234;-76
2022/05/31 04:33:04;;;;;;;0.82;0.82;;;14.40;99.90;;;;;;5043533;28;20288;-76
2022/05/31 04:35:31;;;;;;;1.50;0.90;;;14.40;99.90;;;;;;5044028;28;20215;-76
2022/05/31 04:37:58;;;;;;;1.25;1.17;;;14.40;99.90;;;;;;5045075;28;20630;-76
2022/05/31 04:40:25;;;;;;;1.00;1.00;;;14.40;99.90;;;;;;5045249;28;20233;-76
2022/05/31 04:42:52;;;;;;;0.88;0.88;;;14.40;99.90;;;;;;5046127;28;20199;-76
2022/05/31 04:45:20;;;;;;;1.20;1.08;;;14.40;99.90;;;;;;5046818;28;20599;-76
2022/05/31 04:47:47;;;;;;;0.90;0.90;;;14.50;99.90;;;;;;5046807;28;20206;-76
2022/05/31 04:50:15;;;;;;;0.90;0.90;;;14.50;99.90;;;;;;5042867;28;20295;-76
2022/05/31 04:52:42;;;;;;;1.00;1.00;;;14.50;99.90;;;;;;5050960;28;20287;-76
2022/05/31 04:55:10;;;;;;;0.98;0.98;;;14.50;99.90;;;;;;5044484;28;20828;-76
2022/05/31 04:57:37;;;;;;;0.90;0.90;;;14.60;99.90;;;;;;5044968;28;21392;-76
2022/05/31 05:00:06;;;;;;;1.05;1.00;;;14.60;99.90;;;;;;5048252;28;20215;-75
2022/05/31 05:02:34;;;;;;;0.98;0.98;;;14.60;99.90;;;;;;5049165;28;20219;-76
2022/05/31 05:05:01;;;;;;;1.00;1.00;;;14.60;99.90;;;;;;5038960;28;20215;-76
2022/05/31 05:07:31;;;;;;;0.90;0.90;;;14.50;99.90;;;;;;5042238;28;20665;-76
2022/05/31 05:09:58;;;;;;;1.02;1.00;;;14.40;99.90;;;;;;5047881;28;20294;-76
2022/05/31 05:12:25;;;;;;;1.23;0.88;;;14.30;99.90;;;;;;5045273;28;20195;-76
2022/05/31 05:14:52;;;;;;;1.02;1.02;;;14.30;99.90;;;;;;5053704;28;20214;-76
2022/05/31 05:17:19;;;;;;;1.30;1.20;;;14.40;99.90;;;;;;5066798;28;20656;-76
2022/05/31 05:19:46;;;;;;;1.00;1.00;;;14.40;99.90;;;;;;5050043;28;20215;-76
2022/05/31 05:22:13;;;;;;;1.48;0.80;;;14.50;99.90;;;;;;5048053;28;20662;-77
2022/05/31 05:24:42;;;;;;;0.98;0.98;;;14.60;99.90;;;;;;5049106;28;21153;-77
2022/05/31 05:27:09;;;;;;;0.93;0.93;;;14.70;99.90;;;;;;5051820;28;20209;-77
2022/05/31 05:32:20;;;;;;;1.00;1.00;;;14.80;99.90;;;;;;5066692;28;20295;-76
2022/05/31 05:34:52;;;;;;;1.00;1.00;;;14.80;99.90;;;;;;5069993;28;20225;-77
2022/05/31 05:37:19;;;;;;;0.93;0.93;;;14.80;99.90;;;;;;5065259;28;20256;-75
2022/05/31 05:39:48;;;;;;;0.98;0.93;;;14.80;99.90;;;;;;5066109;28;20210;-77
2022/05/31 05:42:16;;;;;;;1.20;1.00;;;14.90;99.90;;;;;;5065871;28;20199;-77
2022/05/31 05:44:43;;;;;;;1.00;1.00;;;14.90;99.90;;;;;;5074059;28;20219;-77
2022/05/31 05:47:14;;;;;;;1.38;1.10;;;14.90;99.90;;;;;;5068592;28;20649;-77
2022/05/31 05:49:42;;;;;;;1.08;1.08;;;14.90;99.90;;;;;;5065310;28;20214;-77
2022/05/31 05:52:15;;;;;;;2.63;0.90;;;14.90;99.90;;;;;;5066834;28;20286;-77
2022/05/31 05:54:42;;;;;;;1.20;1.10;;;14.90;99.90;;;;;;5067384;28;20305;-77
2022/05/31 05:57:10;;;;;;;1.00;1.00;;;15.00;99.90;;;;;;5063106;28;20654;-76
2022/05/31 05:59:37;;;;;;;1.27;0.85;;;15.00;99.90;;;;;;5067511;28;20219;-77
2022/05/31 06:02:09;;;;;;;1.33;1.23;;;15.00;99.90;;;;;;5068343;28;20742;-76
2022/05/31 06:04:42;;;;;;;1.38;1.00;;;15.10;99.90;;;;;;5066540;28;20230;-77
2022/05/31 06:07:16;;;;;;;0.80;0.80;;;15.10;99.90;;;;;;5068706;28;20194;-76
2022/05/31 06:09:49;;;;;;;2.25;1.00;;;15.10;99.90;;;;;;5064164;28;20221;-75
2022/05/31 06:12:23;;;;;;;1.00;1.00;;;15.20;99.90;;;;;;5061012;28;20696;-77
2022/05/31 06:14:55;;;;;;;1.10;1.10;;;15.20;99.90;;;;;;5062179;28;20209;-76
2022/05/31 06:17:25;;;;;;;1.33;1.17;;;15.30;99.90;;;;;;5062116;28;20950;-76
2022/05/31 06:19:52;;;;;;;1.00;1.00;;;15.30;99.90;;;;;;5067151;28;20206;-76
2022/05/31 06:22:20;;;;;;;1.10;1.00;;;15.40;99.90;;;;;;5064979;28;20255;-76
2022/05/31 06:24:48;;;;;;;1.65;0.80;;;15.40;99.90;;;;;;5063020;28;20221;-76
2022/05/31 06:27:16;;;;;;;1.10;0.98;;;15.40;99.90;;;;;;5057220;28;20187;-75
2022/05/31 06:29:44;;;;;;;0.88;0.88;;;15.40;99.90;;;;;;5066641;28;20246;-77
2022/05/31 06:32:11;;;;;;;0.80;0.80;;;15.50;99.90;;;;;;5059746;28;20202;-76
2022/05/31 06:34:39;;;;;;;0.90;0.90;;;15.60;99.90;;;;;;5051889;28;20215;-75
2022/05/31 06:37:09;;;;;;;0.70;0.70;;;15.70;99.90;;;;;;5062457;28;20218;-75
2022/05/31 06:39:36;;;;;;;0.80;0.80;;;15.90;99.90;;;;;;5061791;28;20636;-75
2022/05/31 06:42:05;;;;;;;1.90;1.15;;;16.00;99.90;;;;;;5062451;28;20214;-75
2022/05/31 06:44:34;;;;;;;1.80;0.90;;;16.10;99.90;;;;;;5058167;28;20224;-75
2022/05/31 06:47:01;;;;;;;0.80;0.80;;;16.20;99.90;;;;;;5065634;28;20202;-75
2022/05/31 06:49:30;;;;;;;1.10;1.10;;;16.20;99.90;;;;;;5059165;28;20223;-75
2022/05/31 06:57:31;;;;;;;0.93;0.93;;;16.40;99.90;;;;;;5059209;28;20635;-76
2022/05/31 07:00:00;;;;;;;1.10;1.00;;;16.60;99.90;;;;;;5060943;28;20280;-76
2022/05/31 07:02:27;;;;;;;0.95;0.95;;;16.60;99.90;;;;;;5057564;28;20198;-77
2022/05/31 07:04:54;;;;;;;1.10;1.00;;;16.60;99.90;;;;;;5058365;28;20719;-76
2022/05/31 07:07:22;;;;;;;1.20;1.10;;;16.60;99.90;;;;;;5063157;28;20202;-76
2022/05/31 07:09:49;;;;;;;1.15;1.00;;;16.60;99.90;;;;;;5057840;28;20716;-76
2022/05/31 07:12:16;;;;;;;1.20;0.98;;;16.60;99.90;;;;;;5067414;28;20186;-76
2022/05/31 07:14:43;;;;;;;0.95;0.95;;;16.70;99.90;;;;;;5060572;28;20218;-75
2022/05/31 07:17:11;;;;;;;1.00;1.00;;;16.80;99.90;;;;;;5060899;28;20268;-75
2022/05/31 07:19:39;;;;;;;1.10;1.00;;;16.80;99.90;;;;;;5058306;28;20218;-76
2022/05/31 07:22:06;;;;;;;1.67;0.95;;;16.80;99.90;;;;;;5060326;28;20493;-76
2022/05/31 07:24:33;;;;;;;0.98;0.98;;;16.80;99.90;;;;;;5054076;28;20215;-75
2022/05/31 07:27:01;;;;;;;1.13;1.13;;;16.90;99.90;;;;;;5056420;28;20228;-75
2022/05/31 07:29:28;;;;;;;1.67;1.05;;;17.10;99.90;;;;;;5062487;28;20229;-75
2022/05/31 07:31:55;;;;;;;1.02;0.93;;;17.10;99.90;;;;;;5058646;28;20890;-76
2022/05/31 07:34:24;;;;;;;2.17;1.15;;;17.10;99.90;;;;;;5065240;28;20249;-74
2022/05/31 07:36:51;;;;;;;1.30;1.20;;;17.10;99.90;;;;;;5056176;28;20286;-75
2022/05/31 07:39:20;;;;;;;1.40;1.00;;;17.30;99.90;;;;;;5053487;28;20284;-75
2022/05/31 07:41:49;;;;;;;1.00;1.00;;;17.40;99.90;;;;;;5054113;28;20218;-76
2022/05/31 07:44:17;;;;;;;2.30;1.00;;;17.60;99.90;;;;;;5059717;28;20226;-76
2022/05/31 07:46:45;;;;;;;0.90;0.90;;;17.70;99.90;;;;;;5062605;28;20194;-76
2022/05/31 07:49:12;;;;;;;1.92;0.90;;;17.70;99.90;;;;;;5062860;28;20255;-76
2022/05/31 07:51:41;;;;;;;0.93;0.90;;;17.80;99.90;;;;;;5058190;28;20720;-76
2022/05/31 07:54:08;;;;;;;1.63;1.00;;;17.90;99.90;;;;;;5061660;28;20198;-74
2022/05/31 07:56:35;;;;;;;2.22;1.35;;;18.00;99.90;;;;;;5060876;28;20216;-75
2022/05/31 07:59:02;;;;;;;1.10;1.00;;;18.10;99.90;;;;;;5058105;28;20260;-75
2022/05/31 08:01:29;;;;;;;1.25;1.13;;;18.20;99.90;;;;;;5059171;28;20214;-76
2022/05/31 08:03:56;;;;;;;0.90;0.90;;;18.20;99.90;;;;;;5059174;28;20592;-75
2022/05/31 08:06:25;;;;;;;0.80;0.80;;;18.30;99.90;;;;;;5057325;28;20202;-76
2022/05/31 08:08:54;;;;;;;2.30;0.93;;;18.40;99.90;;;;;;5056207;28;20199;-77
2022/05/31 08:11:24;;;;;;;1.52;0.93;;;18.50;99.90;;;;;;5062893;28;20225;-77
2022/05/31 08:13:53;;;;;;;0.93;0.93;;;18.60;99.90;;;;;;5055898;28;20198;-76
2022/05/31 08:16:22;;;;;;;1.45;1.35;;;18.50;99.90;;;;;;5054081;28;20899;-74
2022/05/31 08:18:50;;;;;;;1.13;1.05;;;18.40;99.90;;;;;;5052900;28;20616;-76
2022/05/31 08:21:19;;;;;;;1.33;1.10;;;18.40;99.90;;;;;;5057701;28;20218;-75
2022/05/31 08:23:46;;;;;;;1.08;0.80;;;18.40;99.90;;;;;;5056556;28;20266;-74
2022/05/31 08:26:15;;;;;;;0.65;0.65;;;18.30;99.90;;;;;;5058216;28;20604;-74
2022/05/31 08:28:42;;;;;;;6.32;1.17;;;18.20;99.90;;;;;;5057658;28;20217;-75
2022/05/31 08:31:12;;;;;;;0.80;0.80;;;18.30;99.90;;;;;;5057991;28;20222;-75
2022/05/31 08:33:39;;;;;;;1.95;0.90;;;18.40;99.90;;;;;;5058792;28;20779;-74
2022/05/31 08:36:08;;;;;;;1.13;1.00;;;18.50;99.90;;;;;;5061122;28;20217;-77
2022/05/31 08:38:35;;;;;;;1.13;1.02;;;18.60;99.90;;;;;;5063619;28;20244;-77
2022/05/31 08:41:09;;;;;;;0.98;0.80;;;18.80;99.90;;;;;;5072934;28;20215;-76
2022/05/31 08:43:51;;;;;;;0.93;0.93;;;18.80;99.90;;;;;;5063097;28;20201;-75
2022/05/31 08:46:23;;;;;;;0.98;0.77;;;19.10;99.90;;;;;;5053561;28;20222;-77
2022/05/31 08:48:58;;;;;;;0.70;0.70;;;19.30;99.90;;;;;;5059224;28;20282;-77
2022/05/31 08:51:54;;;;;;;0.80;0.80;;;19.40;99.90;;;;;;5063232;28;20756;-77
2022/05/31 08:57:24;;;;;;;2.97;1.13;;;19.40;99.90;;;;;;5066520;28;20224;-77
2022/05/31 08:59:58;;;;;;;0.80;0.80;;;19.60;99.90;;;;;;5064561;28;20221;-76
2022/05/31 09:02:30;;;;;;;1.30;0.77;;;19.70;99.90;;;;;;5064859;28;20209;-77
2022/05/31 09:05:04;;;;;;;0.98;0.98;;;19.80;99.90;;;;;;5064534;28;20256;-77
2022/05/31 09:07:38;;;;;;;0.90;0.90;;;20.10;99.90;;;;;;5064432;28;20623;-77
2022/05/31 09:10:11;;;;;;;0.90;0.90;;;20.60;99.90;;;;;;5063919;28;20736;-77
2022/05/31 09:12:45;;;;;;;0.82;0.70;;;21.00;99.90;;;;;;5064272;28;20198;-78
2022/05/31 09:15:18;;;;;;;0.80;0.80;;;21.40;99.90;;;;;;5069697;28;20229;-75
2022/05/31 09:18:02;;;;;;;1.33;1.13;;;21.70;99.90;;;;;;5066487;28;20200;-74
2022/05/31 09:20:33;;;;;;;0.90;0.90;;;21.70;99.90;;;;;;5058170;28;20222;-73
2022/05/31 09:23:00;;;;;;;0.98;0.88;;;21.60;99.90;;;;;;5067056;28;20201;-74
2022/05/31 09:25:28;;;;;;;0.80;0.80;;;21.50;99.90;;;;;;5072852;28;20684;-76
2022/05/31 09:27:55;;;;;;;1.60;1.20;;;21.50;99.90;;;;;;5063328;28;20622;-77
2022/05/31 09:30:29;;;;;;;1.10;1.00;;;21.60;99.90;;;;;;5058463;28;20747;-78
2022/05/31 09:33:11;;;;;;;1.30;1.20;;;21.80;99.90;;;;;;5060349;28;20213;-77
2022/05/31 09:35:55;;;;;;;1.55;0.90;;;21.70;99.90;;;;;;5080315;22;20225;-75
2022/05/31 09:39:11;;;;;;;1.23;0.93;;;21.70;99.90;;;;;;5056779;28;20206;-76
2022/05/31 09:41:44;;;;;;;1.40;1.13;;;21.90;99.90;;;;;;5063855;28;20220;-75
2022/05/31 09:44:17;;;;;;;2.00;1.15;;;22.10;99.90;;;;;;5064090;28;20214;-76
2022/05/31 09:46:52;;;;;;;1.73;1.10;;;22.10;99.90;;;;;;5057816;28;20282;-77
2022/05/31 09:49:30;;;;;;;1.38;1.00;;;22.00;99.90;;;;;;5065671;28;20194;-77
2022/05/31 09:51:57;;;;;;;0.95;0.95;;;22.10;99.90;;;;;;5062438;28;20649;-76
2022/05/31 09:57:20;;;;;;;2.47;1.00;;;22.20;99.90;;;;;;5061148;28;20228;-76
2022/05/31 09:59:50;;;;;;;1.40;1.30;;;22.30;99.90;;;;;;5062924;28;20205;-77
2022/05/31 10:02:29;;;;;;;1.10;1.10;;;22.20;99.90;;;;;;5070502;28;20206;-76
2022/05/31 10:05:14;;;;;;;1.40;1.00;;;22.10;99.90;;;;;;5060952;28;20191;-76
2022/05/31 10:07:41;;;;;;;2.63;1.02;;;22.00;99.90;;;;;;5063395;28;20198;-77
2022/05/31 10:10:11;;;;;;;2.05;1.30;;;22.10;99.90;;;;;;5061029;28;20225;-76
2022/05/31 10:12:48;;;;;;;0.80;0.80;;;22.20;99.90;;;;;;5062558;28;20201;-76
2022/05/31 10:15:34;;;;;;;0.80;0.80;;;22.30;99.90;;;;;;5061838;28;20427;-77
2022/05/31 10:18:05;;;;;;;1.40;1.30;;;22.60;99.90;;;;;;5063314;28;20217;-76
2022/05/31 10:20:33;;;;;;;1.30;1.20;;;22.60;99.90;;;;;;5062084;28;20227;-76
2022/05/31 10:23:02;;;;;;;1.58;1.20;;;22.50;99.90;;;;;;5058367;28;20194;-76
2022/05/31 10:25:35;;;;;;;1.23;1.10;;;22.70;99.90;;;;;;5069080;28;20266;-75
2022/05/31 10:28:04;;;;;;;1.40;1.27;;;22.90;99.90;;;;;;5085780;28;20270;-76
2022/05/31 10:30:32;;;;;;;4.63;1.77;;;23.00;99.90;;;;;;5083724;28;20217;-76
2022/05/31 10:33:08;;;;;;;2.53;1.50;;;22.70;99.90;;;;;;5084256;28;20190;-76
2022/05/31 10:35:37;;;;;;;1.77;1.67;;;23.20;99.90;;;;;;5078932;28;20225;-76
2022/05/31 10:38:27;;;;;;;2.22;2.03;;;23.40;99.90;;;;;;5081076;28;20597;-76
2022/05/31 10:40:58;;;;;;;1.73;1.63;;;23.50;99.90;;;;;;5081387;28;20245;-76
2022/05/31 10:43:35;;;;;;;4.03;1.70;;;23.60;99.90;;;;;;5085240;28;20198;-75
2022/05/31 10:46:08;;;;;;;2.95;1.52;;;23.70;99.90;;;;;;5084377;28;20233;-75
2022/05/31 10:48:42;;;;;;;3.65;1.95;;;23.60;99.90;;;;;;5080665;28;20189;-75
2022/05/31 10:51:15;;;;;;;2.92;1.98;;;23.60;99.90;;;;;;5078755;28;20294;-75
2022/05/31 10:53:50;;;;;;;1.50;1.40;;;23.60;99.90;;;;;;5081742;28;20280;-75
2022/05/31 10:56:21;;;;;;;1.90;1.75;;;23.80;99.90;;;;;;5088301;28;20229;-76
2022/05/31 10:58:58;;;;;;;1.50;1.40;;;24.10;99.90;;;;;;5085036;28;20202;-76
2022/05/31 11:01:34;;;;;;;2.30;1.73;;;24.40;99.90;;;;;;5079072;28;20213;-75
2022/05/31 11:04:13;;;;;;;3.67;2.13;;;24.80;99.90;;;;;;5081525;28;20216;-76
2022/05/31 11:06:50;;;;;;;2.08;1.80;;;24.80;99.90;;;;;;5082102;28;20229;-77
2022/05/31 11:12:41;;;;;;;3.05;2.72;;;24.90;99.90;;;;;;5083211;28;20641;-77
2022/05/31 11:15:19;;;;;;;2.10;1.90;;;24.70;99.90;;;;;;5086032;28;20217;-78
2022/05/31 11:18:05;;;;;;;1.98;1.33;;;24.80;99.90;;;;;;5084852;28;20271;-76
2022/05/31 11:20:41;;;;;;;2.45;2.25;;;24.90;99.90;;;;;;5086325;28;20253;-77
2022/05/31 11:23:22;;;;;;;2.55;2.30;;;25.00;99.90;;;;;;5080333;28;20193;-77
2022/05/31 11:26:07;;;;;;;3.08;2.00;;;24.80;99.90;;;;;;5071446;28;20227;-77
2022/05/31 11:28:51;;;;;;;2.58;2.30;;;24.50;99.90;;;;;;5063582;28;20247;-77
2022/05/31 11:31:35;;;;;;;2.47;1.50;;;24.50;99.90;;;;;;5059760;28;20226;-76
2022/05/31 11:34:11;;;;;;;1.52;1.40;;;24.70;99.90;;;;;;5046528;28;20220;-76
2022/05/31 11:36:53;;;;;;;3.15;1.40;;;24.90;99.90;;;;;;5058803;28;20248;-77
2022/05/31 11:39:42;;;;;;;2.13;1.75;;;24.90;99.90;;;;;;5055981;28;20198;-77
2022/05/31 11:42:22;;;;;;;2.83;2.63;;;24.80;99.90;;;;;;5055349;28;20242;-76
2022/05/31 11:45:11;;;;;;;2.22;2.08;;;24.40;99.90;;;;;;5056041;28;20715;-76
2022/05/31 11:48:02;;;;;;;2.00;1.88;;;24.20;99.90;;;;;;5056601;28;21231;-76
2022/05/31 11:50:37;;;;;;;1.58;1.40;;;24.40;99.90;;;;;;5060451;28;20756;-77
2022/05/31 11:53:42;;;;;;;2.35;2.10;;;24.70;99.90;;;;;;5057296;28;20198;-76
2022/05/31 11:56:13;;;;;;;3.55;2.40;;;24.80;99.90;;;;;;5009284;28;20295;-74
2022/05/31 11:58:46;;;;;;;2.67;2.00;;;24.90;99.90;;;;;;5052726;28;20194;-76
2022/05/31 12:01:21;;;;;;;2.42;1.75;;;24.90;99.90;;;;;;5057576;28;20214;-76
2022/05/31 12:04:01;;;;;;;2.80;1.90;;;25.00;99.90;;;;;;5054641;28;20442;-76
2022/05/31 12:06:38;;;;;;;2.55;1.40;;;25.10;99.90;;;;;;5052892;28;20226;-77
2022/05/31 12:09:14;;;;;;;2.30;1.40;;;25.40;99.90;;;;;;5053036;28;20198;-76
2022/05/31 12:11:50;;;;;;;1.52;1.30;;;25.50;99.90;;;;;;5067618;28;20212;-77
2022/05/31 12:14:19;;;;;;;1.67;1.30;;;25.30;99.90;;;;;;5075505;28;20198;-77
2022/05/31 12:16:47;;;;;;;1.70;1.60;;;25.40;99.90;;;;;;5074545;28;20255;-77
2022/05/31 12:19:23;;;;;;;2.10;1.55;;;25.40;99.90;;;;;;5078250;28;20342;-77
2022/05/31 12:21:56;;;;;;;1.73;1.60;;;25.40;99.90;;;;;;5075007;28;20254;-77
2022/05/31 12:24:31;;;;;;;2.75;1.55;;;25.00;99.90;;;;;;5078373;28;20205;-77
2022/05/31 12:27:06;;;;;;;1.70;1.60;;;24.40;99.90;;;;;;5073029;28;20338;-77
2022/05/31 12:29:42;;;;;;;2.55;1.55;;;24.00;99.90;;;;;;5078035;28;20339;-77
2022/05/31 12:32:31;;;;;;;2.55;2.20;;;23.80;99.90;;;;;;5073644;28;20318;-76
2022/05/31 12:35:00;;;;;;;6.60;2.08;;;23.80;99.90;;;;;;5078517;28;20194;-77
2022/05/31 12:37:27;;;;;;;4.15;1.73;;;23.40;99.90;;;;;;5076325;28;20625;-76
2022/05/31 12:40:26;;;;;;;5.15;2.10;;;23.40;99.90;;;;;;5077350;28;20198;-76
2022/05/31 12:42:53;;;;;;;3.08;1.73;;;23.50;99.90;;;;;;5072669;28;21446;-76
2022/05/31 12:45:39;;;;;;;1.67;1.40;;;23.70;99.90;;;;;;5050343;28;20218;-75
2022/05/31 12:48:32;;;;;;;3.53;1.60;;;23.90;99.90;;;;;;5053900;28;20276;-76
2022/05/31 12:51:21;;;;;;;3.95;2.22;;;24.10;99.90;;;;;;5056822;28;20209;-77
2022/05/31 12:54:06;;;;;;;3.78;2.00;;;24.00;99.90;;;;;;5072334;28;20808;-77
2022/05/31 12:57:03;;;;;;;2.42;1.98;;;23.80;99.90;;;;;;5078306;28;20217;-77
2022/05/31 12:59:46;;;;;;;1.95;1.70;;;23.50;99.90;;;;;;5042490;28;20226;-76
2022/05/31 13:02:33;;;;;;;1.40;1.30;;;23.30;99.90;;;;;;5050932;28;20194;-76
2022/05/31 13:05:06;;;;;;;2.55;1.75;;;23.20;99.90;;;;;;5055144;28;20301;-77
2022/05/31 13:07:46;;;;;;;3.38;2.17;;;23.10;99.90;;;;;;5056920;28;20194;-76
2022/05/31 13:10:34;;;;;;;2.25;2.03;;;23.00;99.90;;;;;;5059292;28;20253;-76
2022/05/31 13:21:19;;;;;;;2.45;2.05;;;22.40;99.90;;;;;;5055612;28;20209;-77
2022/05/31 13:23:47;;;;;;;3.92;2.15;;;22.40;99.90;;;;;;5056009;28;20317;-76
2022/05/31 13:26:20;;;;;;;2.30;2.00;;;22.40;99.90;;;;;;5055201;28;20664;-76
2022/05/31 13:29:00;;;;;;;4.30;2.58;;;22.40;99.90;;;;;;5054753;28;20299;-76
2022/05/31 13:31:33;;;;;;;2.00;1.88;;;22.30;99.90;;;;;;5057728;28;20680;-77
2022/05/31 13:34:02;;;;;;;3.25;2.20;;;22.20;99.90;;;;;;5054207;28;20326;-77
2022/05/31 13:36:31;;;;;;;3.00;2.30;;;22.30;99.90;;;;;;5056963;28;20291;-78
2022/05/31 13:39:03;;;;;;;3.47;1.90;;;22.30;99.90;;;;;;5056651;28;20214;-77
2022/05/31 13:41:31;;;;;;;1.98;1.58;;;22.40;99.90;;;;;;5059685;28;20194;-77
2022/05/31 13:44:02;;;;;;;2.40;2.00;;;22.60;99.90;;;;;;5059637;28;20315;-77